sensor_id;sensor_type;location;lat;lon;timestamp;P1;durP1;ratioP1;P2;durP2;ratioP2
13891;SDS011;7016;48.172;8.058;2023-07-13T00:00:03;3.50;;;2.20;;
13891;SDS011;7016;48.172;8.058;2023-07-13T00:02:55;5.50;;;2.42;;
13891;SDS011;7016;48.172;8.058;2023-07-13T00:05:41;5.85;;;2.30;;
13891;SDS011;7016;48.172;8.058;2023-07-13T00:11:18;7.20;;;2.50;;
13891;SDS011;7016;48.172;8.058;2023-07-13T00:14:08;4.53;;;2.45;;
13891;SDS011;7016;48.172;8.058;2023-07-13T00:16:55;10.75;;;2.30;;
13891;SDS011;7016;48.172;8.058;2023-07-13T00:19:41;6.05;;;2.35;;
13891;SDS011;7016;48.172;8.058;2023-07-13T00:22:27;6.72;;;2.10;;
13891;SDS011;7016;48.172;8.058;2023-07-13T00:25:13;6.35;;;2.42;;
13891;SDS011;7016;48.172;8.058;2023-07-13T00:28:00;5.65;;;2.63;;
13891;SDS011;7016;48.172;8.058;2023-07-13T00:30:46;7.28;;;2.10;;
13891;SDS011;7016;48.172;8.058;2023-07-13T00:33:32;5.25;;;2.47;;
13891;SDS011;7016;48.172;8.058;2023-07-13T00:36:19;4.63;;;2.00;;
13891;SDS011;7016;48.172;8.058;2023-07-13T00:39:06;8.60;;;2.63;;
13891;SDS011;7016;48.172;8.058;2023-07-13T00:41:52;5.90;;;2.10;;
13891;SDS011;7016;48.172;8.058;2023-07-13T00:44:38;3.35;;;1.90;;
13891;SDS011;7016;48.172;8.058;2023-07-13T00:47:25;4.65;;;1.85;;
13891;SDS011;7016;48.172;8.058;2023-07-13T00:50:12;5.47;;;1.95;;
13891;SDS011;7016;48.172;8.058;2023-07-13T00:53:00;4.35;;;2.00;;
13891;SDS011;7016;48.172;8.058;2023-07-13T00:55:47;3.85;;;1.85;;
13891;SDS011;7016;48.172;8.058;2023-07-13T00:58:35;3.95;;;1.88;;
13891;SDS011;7016;48.172;8.058;2023-07-13T01:01:21;3.92;;;1.98;;
13891;SDS011;7016;48.172;8.058;2023-07-13T01:04:07;6.38;;;1.75;;
13891;SDS011;7016;48.172;8.058;2023-07-13T01:06:54;6.63;;;1.92;;
13891;SDS011;7016;48.172;8.058;2023-07-13T01:09:41;3.92;;;1.70;;
13891;SDS011;7016;48.172;8.058;2023-07-13T01:12:27;4.28;;;1.63;;
13891;SDS011;7016;48.172;8.058;2023-07-13T01:15:36;5.57;;;2.03;;
13891;SDS011;7016;48.172;8.058;2023-07-13T01:18:24;5.05;;;2.00;;
13891;SDS011;7016;48.172;8.058;2023-07-13T01:21:12;5.25;;;1.60;;
13891;SDS011;7016;48.172;8.058;2023-07-13T01:23:58;5.50;;;2.08;;
13891;SDS011;7016;48.172;8.058;2023-07-13T01:26:44;4.28;;;1.48;;
13891;SDS011;7016;48.172;8.058;2023-07-13T01:29:30;6.05;;;1.80;;
13891;SDS011;7016;48.172;8.058;2023-07-13T01:32:19;5.30;;;1.88;;
13891;SDS011;7016;48.172;8.058;2023-07-13T01:35:09;5.40;;;1.85;;
13891;SDS011;7016;48.172;8.058;2023-07-13T01:37:58;5.38;;;1.88;;
13891;SDS011;7016;48.172;8.058;2023-07-13T01:40:46;3.95;;;1.80;;
13891;SDS011;7016;48.172;8.058;2023-07-13T01:43:32;4.93;;;1.90;;
13891;SDS011;7016;48.172;8.058;2023-07-13T01:46:19;4.93;;;1.83;;
13891;SDS011;7016;48.172;8.058;2023-07-13T01:49:05;7.20;;;1.52;;
13891;SDS011;7016;48.172;8.058;2023-07-13T01:51:51;8.05;;;2.05;;
13891;SDS011;7016;48.172;8.058;2023-07-13T01:54:37;5.28;;;2.00;;
13891;SDS011;7016;48.172;8.058;2023-07-13T01:57:24;3.75;;;1.92;;
13891;SDS011;7016;48.172;8.058;2023-07-13T02:00:10;5.32;;;2.20;;
13891;SDS011;7016;48.172;8.058;2023-07-13T02:02:58;3.63;;;1.90;;
13891;SDS011;7016;48.172;8.058;2023-07-13T02:05:44;5.03;;;1.90;;
13891;SDS011;7016;48.172;8.058;2023-07-13T02:08:32;6.32;;;2.30;;
13891;SDS011;7016;48.172;8.058;2023-07-13T02:11:19;4.68;;;1.55;;
13891;SDS011;7016;48.172;8.058;2023-07-13T02:14:05;3.60;;;2.10;;
13891;SDS011;7016;48.172;8.058;2023-07-13T02:16:51;9.25;;;2.50;;
13891;SDS011;7016;48.172;8.058;2023-07-13T02:19:37;3.25;;;1.60;;
13891;SDS011;7016;48.172;8.058;2023-07-13T02:22:23;6.13;;;2.00;;
13891;SDS011;7016;48.172;8.058;2023-07-13T02:25:10;8.45;;;1.85;;
13891;SDS011;7016;48.172;8.058;2023-07-13T02:27:56;5.93;;;1.63;;
13891;SDS011;7016;48.172;8.058;2023-07-13T02:30:42;5.55;;;2.00;;
13891;SDS011;7016;48.172;8.058;2023-07-13T02:33:28;5.35;;;2.20;;
13891;SDS011;7016;48.172;8.058;2023-07-13T02:36:15;3.67;;;1.90;;
13891;SDS011;7016;48.172;8.058;2023-07-13T02:39:02;3.60;;;1.98;;
13891;SDS011;7016;48.172;8.058;2023-07-13T02:41:50;5.88;;;2.25;;
13891;SDS011;7016;48.172;8.058;2023-07-13T02:44:36;6.40;;;2.10;;
13891;SDS011;7016;48.172;8.058;2023-07-13T02:47:22;6.10;;;2.22;;
13891;SDS011;7016;48.172;8.058;2023-07-13T02:50:09;11.38;;;1.88;;
13891;SDS011;7016;48.172;8.058;2023-07-13T02:52:55;3.72;;;1.77;;
13891;SDS011;7016;48.172;8.058;2023-07-13T02:55:41;6.55;;;2.08;;
13891;SDS011;7016;48.172;8.058;2023-07-13T02:58:32;3.63;;;1.70;;
13891;SDS011;7016;48.172;8.058;2023-07-13T03:01:21;4.60;;;1.92;;
13891;SDS011;7016;48.172;8.058;2023-07-13T03:04:08;5.05;;;1.70;;
13891;SDS011;7016;48.172;8.058;2023-07-13T03:06:54;4.57;;;1.95;;
13891;SDS011;7016;48.172;8.058;2023-07-13T03:09:43;5.25;;;1.90;;
13891;SDS011;7016;48.172;8.058;2023-07-13T03:12:29;5.18;;;1.80;;
13891;SDS011;7016;48.172;8.058;2023-07-13T03:15:15;9.00;;;1.90;;
13891;SDS011;7016;48.172;8.058;2023-07-13T03:18:01;5.53;;;1.80;;
13891;SDS011;7016;48.172;8.058;2023-07-13T03:20:50;4.93;;;1.50;;
13891;SDS011;7016;48.172;8.058;2023-07-13T03:23:38;6.65;;;1.73;;
13891;SDS011;7016;48.172;8.058;2023-07-13T03:26:24;8.23;;;1.88;;
13891;SDS011;7016;48.172;8.058;2023-07-13T03:29:10;5.47;;;1.77;;
13891;SDS011;7016;48.172;8.058;2023-07-13T03:31:56;4.65;;;1.80;;
13891;SDS011;7016;48.172;8.058;2023-07-13T03:34:42;6.78;;;1.80;;
13891;SDS011;7016;48.172;8.058;2023-07-13T03:37:29;4.55;;;1.80;;
13891;SDS011;7016;48.172;8.058;2023-07-13T03:40:15;6.38;;;1.80;;
13891;SDS011;7016;48.172;8.058;2023-07-13T03:43:01;6.10;;;1.85;;
13891;SDS011;7016;48.172;8.058;2023-07-13T03:45:48;4.10;;;1.58;;
13891;SDS011;7016;48.172;8.058;2023-07-13T03:48:34;9.27;;;1.63;;
13891;SDS011;7016;48.172;8.058;2023-07-13T03:51:20;6.35;;;1.85;;
13891;SDS011;7016;48.172;8.058;2023-07-13T03:54:07;3.83;;;1.70;;
13891;SDS011;7016;48.172;8.058;2023-07-13T03:56:53;5.38;;;1.85;;
13891;SDS011;7016;48.172;8.058;2023-07-13T03:59:39;7.57;;;2.05;;
13891;SDS011;7016;48.172;8.058;2023-07-13T04:02:25;3.28;;;1.60;;
13891;SDS011;7016;48.172;8.058;2023-07-13T04:05:11;3.75;;;1.42;;
13891;SDS011;7016;48.172;8.058;2023-07-13T04:07:57;4.90;;;1.60;;
13891;SDS011;7016;48.172;8.058;2023-07-13T04:10:44;3.28;;;1.73;;
13891;SDS011;7016;48.172;8.058;2023-07-13T04:13:30;3.67;;;1.60;;
13891;SDS011;7016;48.172;8.058;2023-07-13T04:16:16;5.82;;;1.95;;
13891;SDS011;7016;48.172;8.058;2023-07-13T04:19:03;3.90;;;1.90;;
13891;SDS011;7016;48.172;8.058;2023-07-13T04:21:50;3.08;;;1.60;;
13891;SDS011;7016;48.172;8.058;2023-07-13T04:24:36;4.95;;;1.75;;
13891;SDS011;7016;48.172;8.058;2023-07-13T04:27:22;9.98;;;1.75;;
13891;SDS011;7016;48.172;8.058;2023-07-13T04:30:09;6.10;;;1.80;;
13891;SDS011;7016;48.172;8.058;2023-07-13T04:32:55;3.70;;;1.65;;
13891;SDS011;7016;48.172;8.058;2023-07-13T04:35:41;7.63;;;1.98;;
13891;SDS011;7016;48.172;8.058;2023-07-13T04:38:29;13.98;;;1.88;;
13891;SDS011;7016;48.172;8.058;2023-07-13T04:41:16;4.85;;;2.03;;
13891;SDS011;7016;48.172;8.058;2023-07-13T04:44:02;6.18;;;1.88;;
13891;SDS011;7016;48.172;8.058;2023-07-13T04:46:48;4.35;;;1.95;;
13891;SDS011;7016;48.172;8.058;2023-07-13T04:49:35;4.60;;;1.80;;
13891;SDS011;7016;48.172;8.058;2023-07-13T04:52:21;4.82;;;1.70;;
13891;SDS011;7016;48.172;8.058;2023-07-13T04:55:07;6.13;;;2.13;;
13891;SDS011;7016;48.172;8.058;2023-07-13T04:57:53;11.00;;;1.90;;
13891;SDS011;7016;48.172;8.058;2023-07-13T05:00:39;5.35;;;1.98;;
13891;SDS011;7016;48.172;8.058;2023-07-13T05:03:26;4.63;;;1.85;;
13891;SDS011;7016;48.172;8.058;2023-07-13T05:06:12;8.85;;;1.92;;
13891;SDS011;7016;48.172;8.058;2023-07-13T05:08:59;6.97;;;1.75;;
13891;SDS011;7016;48.172;8.058;2023-07-13T05:11:45;4.75;;;1.90;;
13891;SDS011;7016;48.172;8.058;2023-07-13T05:14:31;7.00;;;1.90;;
13891;SDS011;7016;48.172;8.058;2023-07-13T05:17:17;8.93;;;2.25;;
13891;SDS011;7016;48.172;8.058;2023-07-13T05:20:04;7.88;;;2.13;;
13891;SDS011;7016;48.172;8.058;2023-07-13T05:22:51;8.23;;;2.22;;
13891;SDS011;7016;48.172;8.058;2023-07-13T05:25:37;4.65;;;1.80;;
13891;SDS011;7016;48.172;8.058;2023-07-13T05:28:24;3.65;;;1.80;;
13891;SDS011;7016;48.172;8.058;2023-07-13T05:31:13;3.88;;;1.80;;
13891;SDS011;7016;48.172;8.058;2023-07-13T05:33:59;5.75;;;2.50;;
13891;SDS011;7016;48.172;8.058;2023-07-13T05:36:45;6.10;;;1.77;;
13891;SDS011;7016;48.172;8.058;2023-07-13T05:39:32;8.13;;;2.15;;
13891;SDS011;7016;48.172;8.058;2023-07-13T05:42:18;7.00;;;1.85;;
13891;SDS011;7016;48.172;8.058;2023-07-13T05:45:04;12.07;;;2.47;;
13891;SDS011;7016;48.172;8.058;2023-07-13T05:47:50;7.22;;;2.20;;
13891;SDS011;7016;48.172;8.058;2023-07-13T05:50:37;3.65;;;1.67;;
13891;SDS011;7016;48.172;8.058;2023-07-13T05:53:23;7.18;;;2.42;;
13891;SDS011;7016;48.172;8.058;2023-07-13T05:56:09;7.78;;;2.20;;
13891;SDS011;7016;48.172;8.058;2023-07-13T05:58:56;6.57;;;2.70;;
13891;SDS011;7016;48.172;8.058;2023-07-13T06:01:42;6.85;;;2.67;;
13891;SDS011;7016;48.172;8.058;2023-07-13T06:04:28;6.82;;;2.13;;
13891;SDS011;7016;48.172;8.058;2023-07-13T06:07:14;6.25;;;2.25;;
13891;SDS011;7016;48.172;8.058;2023-07-13T06:10:00;6.00;;;2.42;;
13891;SDS011;7016;48.172;8.058;2023-07-13T06:12:47;6.47;;;2.13;;
13891;SDS011;7016;48.172;8.058;2023-07-13T06:15:33;6.28;;;2.70;;
13891;SDS011;7016;48.172;8.058;2023-07-13T06:18:19;7.72;;;1.98;;
13891;SDS011;7016;48.172;8.058;2023-07-13T06:21:15;7.55;;;2.00;;
13891;SDS011;7016;48.172;8.058;2023-07-13T06:24:03;7.60;;;2.20;;
13891;SDS011;7016;48.172;8.058;2023-07-13T06:26:49;6.63;;;2.67;;
13891;SDS011;7016;48.172;8.058;2023-07-13T06:29:36;9.93;;;3.15;;
13891;SDS011;7016;48.172;8.058;2023-07-13T06:32:22;10.45;;;3.63;;
13891;SDS011;7016;48.172;8.058;2023-07-13T06:35:08;11.77;;;4.50;;
13891;SDS011;7016;48.172;8.058;2023-07-13T06:37:58;16.02;;;3.90;;
13891;SDS011;7016;48.172;8.058;2023-07-13T06:40:44;8.45;;;3.65;;
13891;SDS011;7016;48.172;8.058;2023-07-13T06:43:30;8.32;;;2.78;;
13891;SDS011;7016;48.172;8.058;2023-07-13T06:46:17;5.93;;;2.45;;
13891;SDS011;7016;48.172;8.058;2023-07-13T06:49:03;5.80;;;2.72;;
13891;SDS011;7016;48.172;8.058;2023-07-13T06:51:49;5.90;;;2.97;;
13891;SDS011;7016;48.172;8.058;2023-07-13T06:54:35;6.35;;;2.67;;
13891;SDS011;7016;48.172;8.058;2023-07-13T06:57:22;13.40;;;2.92;;
13891;SDS011;7016;48.172;8.058;2023-07-13T07:00:08;7.00;;;2.70;;
13891;SDS011;7016;48.172;8.058;2023-07-13T07:02:55;9.70;;;3.47;;
13891;SDS011;7016;48.172;8.058;2023-07-13T07:05:41;5.78;;;2.30;;
13891;SDS011;7016;48.172;8.058;2023-07-13T07:08:30;4.90;;;2.40;;
13891;SDS011;7016;48.172;8.058;2023-07-13T07:11:23;9.93;;;3.00;;
13891;SDS011;7016;48.172;8.058;2023-07-13T07:14:10;10.70;;;3.08;;
13891;SDS011;7016;48.172;8.058;2023-07-13T07:16:56;7.93;;;2.85;;
13891;SDS011;7016;48.172;8.058;2023-07-13T07:19:44;11.13;;;3.58;;
13891;SDS011;7016;48.172;8.058;2023-07-13T07:22:30;7.03;;;3.00;;
13891;SDS011;7016;48.172;8.058;2023-07-13T07:25:17;10.75;;;3.70;;
13891;SDS011;7016;48.172;8.058;2023-07-13T07:28:03;9.70;;;3.25;;
13891;SDS011;7016;48.172;8.058;2023-07-13T07:30:51;8.98;;;2.70;;
13891;SDS011;7016;48.172;8.058;2023-07-13T07:33:39;8.32;;;3.42;;
13891;SDS011;7016;48.172;8.058;2023-07-13T07:36:25;13.63;;;3.13;;
13891;SDS011;7016;48.172;8.058;2023-07-13T07:39:11;8.48;;;3.30;;
13891;SDS011;7016;48.172;8.058;2023-07-13T07:41:57;7.65;;;2.53;;
13891;SDS011;7016;48.172;8.058;2023-07-13T07:44:44;5.40;;;1.85;;
13891;SDS011;7016;48.172;8.058;2023-07-13T07:47:30;8.88;;;2.10;;
13891;SDS011;7016;48.172;8.058;2023-07-13T07:50:16;12.18;;;2.17;;
13891;SDS011;7016;48.172;8.058;2023-07-13T07:53:02;3.75;;;1.58;;
13891;SDS011;7016;48.172;8.058;2023-07-13T07:55:52;7.10;;;2.10;;
13891;SDS011;7016;48.172;8.058;2023-07-13T07:58:38;6.07;;;1.80;;
13891;SDS011;7016;48.172;8.058;2023-07-13T08:01:24;6.40;;;1.45;;
13891;SDS011;7016;48.172;8.058;2023-07-13T08:04:11;7.38;;;1.50;;
13891;SDS011;7016;48.172;8.058;2023-07-13T08:06:57;5.47;;;1.77;;
13891;SDS011;7016;48.172;8.058;2023-07-13T08:09:43;5.05;;;1.63;;
13891;SDS011;7016;48.172;8.058;2023-07-13T08:12:29;4.93;;;1.58;;
13891;SDS011;7016;48.172;8.058;2023-07-13T08:15:19;6.25;;;1.60;;
13891;SDS011;7016;48.172;8.058;2023-07-13T08:18:06;5.70;;;1.58;;
13891;SDS011;7016;48.172;8.058;2023-07-13T08:20:54;7.47;;;1.92;;
13891;SDS011;7016;48.172;8.058;2023-07-13T08:23:42;8.05;;;2.20;;
13891;SDS011;7016;48.172;8.058;2023-07-13T08:26:28;3.38;;;1.40;;
13891;SDS011;7016;48.172;8.058;2023-07-13T08:29:14;8.57;;;1.80;;
13891;SDS011;7016;48.172;8.058;2023-07-13T08:32:00;7.57;;;1.92;;
13891;SDS011;7016;48.172;8.058;2023-07-13T08:34:47;7.95;;;1.67;;
13891;SDS011;7016;48.172;8.058;2023-07-13T08:37:34;8.00;;;1.70;;
13891;SDS011;7016;48.172;8.058;2023-07-13T08:40:22;5.05;;;1.20;;
13891;SDS011;7016;48.172;8.058;2023-07-13T08:43:18;3.60;;;1.35;;
13891;SDS011;7016;48.172;8.058;2023-07-13T08:46:13;7.47;;;1.50;;
13891;SDS011;7016;48.172;8.058;2023-07-13T08:49:13;4.72;;;1.42;;
13891;SDS011;7016;48.172;8.058;2023-07-13T08:52:04;4.22;;;1.52;;
13891;SDS011;7016;48.172;8.058;2023-07-13T08:54:59;10.07;;;1.67;;
13891;SDS011;7016;48.172;8.058;2023-07-13T08:58:00;5.32;;;1.52;;
13891;SDS011;7016;48.172;8.058;2023-07-13T09:01:00;5.50;;;1.30;;
13891;SDS011;7016;48.172;8.058;2023-07-13T09:15:40;7.60;;;1.60;;
13891;SDS011;7016;48.172;8.058;2023-07-13T09:21:22;3.72;;;1.67;;
13891;SDS011;7016;48.172;8.058;2023-07-13T09:24:26;4.18;;;1.52;;
13891;SDS011;7016;48.172;8.058;2023-07-13T09:27:21;8.07;;;1.38;;
13891;SDS011;7016;48.172;8.058;2023-07-13T09:33:10;7.82;;;1.50;;
13891;SDS011;7016;48.172;8.058;2023-07-13T09:35:57;4.85;;;1.48;;
13891;SDS011;7016;48.172;8.058;2023-07-13T09:38:44;4.43;;;1.42;;
13891;SDS011;7016;48.172;8.058;2023-07-13T09:44:56;12.05;;;1.63;;
13891;SDS011;7016;48.172;8.058;2023-07-13T09:47:44;11.50;;;1.70;;
13891;SDS011;7016;48.172;8.058;2023-07-13T09:50:31;5.68;;;1.60;;
13891;SDS011;7016;48.172;8.058;2023-07-13T09:53:18;3.85;;;1.45;;
13891;SDS011;7016;48.172;8.058;2023-07-13T09:56:05;5.60;;;1.58;;
13891;SDS011;7016;48.172;8.058;2023-07-13T09:59:08;6.43;;;1.38;;
13891;SDS011;7016;48.172;8.058;2023-07-13T10:05:13;4.38;;;1.40;;
13891;SDS011;7016;48.172;8.058;2023-07-13T10:08:01;5.45;;;1.40;;
13891;SDS011;7016;48.172;8.058;2023-07-13T10:10:52;6.45;;;1.40;;
13891;SDS011;7016;48.172;8.058;2023-07-13T10:13:45;4.25;;;1.33;;
13891;SDS011;7016;48.172;8.058;2023-07-13T10:16:44;3.28;;;1.30;;
13891;SDS011;7016;48.172;8.058;2023-07-13T10:19:32;3.20;;;1.20;;
13891;SDS011;7016;48.172;8.058;2023-07-13T10:22:27;5.47;;;1.63;;
13891;SDS011;7016;48.172;8.058;2023-07-13T10:25:23;7.68;;;2.10;;
13891;SDS011;7016;48.172;8.058;2023-07-13T10:28:14;5.35;;;1.13;;
13891;SDS011;7016;48.172;8.058;2023-07-13T10:31:11;5.55;;;1.38;;
13891;SDS011;7016;48.172;8.058;2023-07-13T10:34:00;6.32;;;1.55;;
13891;SDS011;7016;48.172;8.058;2023-07-13T10:36:47;7.85;;;1.33;;
13891;SDS011;7016;48.172;8.058;2023-07-13T10:39:34;6.43;;;1.17;;
13891;SDS011;7016;48.172;8.058;2023-07-13T10:42:32;4.65;;;1.50;;
13891;SDS011;7016;48.172;8.058;2023-07-13T10:45:22;3.45;;;1.50;;
13891;SDS011;7016;48.172;8.058;2023-07-13T10:48:12;5.13;;;1.30;;
13891;SDS011;7016;48.172;8.058;2023-07-13T10:50:59;3.72;;;1.20;;
13891;SDS011;7016;48.172;8.058;2023-07-13T10:53:47;4.57;;;1.48;;
13891;SDS011;7016;48.172;8.058;2023-07-13T10:57:07;5.10;;;1.40;;
13891;SDS011;7016;48.172;8.058;2023-07-13T11:00:16;3.83;;;1.40;;
13891;SDS011;7016;48.172;8.058;2023-07-13T11:03:03;8.15;;;1.38;;
13891;SDS011;7016;48.172;8.058;2023-07-13T11:05:51;6.68;;;1.30;;
13891;SDS011;7016;48.172;8.058;2023-07-13T11:11:38;6.82;;;1.45;;
13891;SDS011;7016;48.172;8.058;2023-07-13T11:14:26;7.35;;;1.42;;
13891;SDS011;7016;48.172;8.058;2023-07-13T11:20:34;4.63;;;1.35;;
13891;SDS011;7016;48.172;8.058;2023-07-13T11:23:28;5.80;;;1.40;;
13891;SDS011;7016;48.172;8.058;2023-07-13T11:32:24;4.47;;;1.30;;
13891;SDS011;7016;48.172;8.058;2023-07-13T11:35:17;7.55;;;1.40;;
13891;SDS011;7016;48.172;8.058;2023-07-13T11:38:14;3.70;;;1.50;;
13891;SDS011;7016;48.172;8.058;2023-07-13T11:41:16;4.82;;;1.30;;
13891;SDS011;7016;48.172;8.058;2023-07-13T11:47:08;8.35;;;1.42;;
13891;SDS011;7016;48.172;8.058;2023-07-13T11:49:56;4.88;;;1.50;;
13891;SDS011;7016;48.172;8.058;2023-07-13T11:52:43;7.30;;;1.55;;
13891;SDS011;7016;48.172;8.058;2023-07-13T11:55:30;7.25;;;1.45;;
13891;SDS011;7016;48.172;8.058;2023-07-13T11:58:17;14.40;;;1.75;;
13891;SDS011;7016;48.172;8.058;2023-07-13T12:01:27;4.47;;;1.10;;
13891;SDS011;7016;48.172;8.058;2023-07-13T12:04:20;6.35;;;1.40;;
13891;SDS011;7016;48.172;8.058;2023-07-13T12:07:15;8.00;;;1.42;;
13891;SDS011;7016;48.172;8.058;2023-07-13T12:10:13;6.68;;;1.55;;
13891;SDS011;7016;48.172;8.058;2023-07-13T12:13:11;8.43;;;2.20;;
13891;SDS011;7016;48.172;8.058;2023-07-13T12:15:58;4.05;;;1.50;;
13891;SDS011;7016;48.172;8.058;2023-07-13T12:18:44;3.38;;;1.30;;
13891;SDS011;7016;48.172;8.058;2023-07-13T12:21:37;7.22;;;1.42;;
13891;SDS011;7016;48.172;8.058;2023-07-13T12:24:25;7.68;;;1.40;;
13891;SDS011;7016;48.172;8.058;2023-07-13T12:27:26;6.53;;;1.73;;
13891;SDS011;7016;48.172;8.058;2023-07-13T12:33:14;7.10;;;1.63;;
13891;SDS011;7016;48.172;8.058;2023-07-13T12:36:03;6.20;;;1.50;;
13891;SDS011;7016;48.172;8.058;2023-07-13T12:38:51;5.43;;;1.38;;
13891;SDS011;7016;48.172;8.058;2023-07-13T12:41:38;9.30;;;1.48;;
13891;SDS011;7016;48.172;8.058;2023-07-13T12:44:28;4.78;;;1.40;;
13891;SDS011;7016;48.172;8.058;2023-07-13T12:47:15;4.05;;;1.50;;
13891;SDS011;7016;48.172;8.058;2023-07-13T12:50:02;5.95;;;1.65;;
13891;SDS011;7016;48.172;8.058;2023-07-13T12:52:52;7.05;;;1.40;;
13891;SDS011;7016;48.172;8.058;2023-07-13T12:55:49;10.60;;;1.38;;
13891;SDS011;7016;48.172;8.058;2023-07-13T12:58:39;4.32;;;1.35;;
13891;SDS011;7016;48.172;8.058;2023-07-13T13:01:29;5.10;;;1.40;;
13891;SDS011;7016;48.172;8.058;2023-07-13T13:04:19;4.28;;;1.15;;
13891;SDS011;7016;48.172;8.058;2023-07-13T13:07:08;5.80;;;1.42;;
13891;SDS011;7016;48.172;8.058;2023-07-13T13:09:55;5.22;;;1.65;;
13891;SDS011;7016;48.172;8.058;2023-07-13T13:12:41;6.95;;;1.60;;
13891;SDS011;7016;48.172;8.058;2023-07-13T13:15:27;8.30;;;1.48;;
13891;SDS011;7016;48.172;8.058;2023-07-13T13:18:19;5.15;;;1.58;;
13891;SDS011;7016;48.172;8.058;2023-07-13T13:21:09;8.00;;;1.63;;
13891;SDS011;7016;48.172;8.058;2023-07-13T13:23:55;6.00;;;1.50;;
13891;SDS011;7016;48.172;8.058;2023-07-13T13:26:42;8.13;;;1.73;;
13891;SDS011;7016;48.172;8.058;2023-07-13T13:29:31;8.68;;;1.58;;
13891;SDS011;7016;48.172;8.058;2023-07-13T13:32:18;5.93;;;1.55;;
13891;SDS011;7016;48.172;8.058;2023-07-13T13:35:05;3.78;;;1.70;;
13891;SDS011;7016;48.172;8.058;2023-07-13T13:37:58;9.48;;;1.48;;
13891;SDS011;7016;48.172;8.058;2023-07-13T13:40:44;4.65;;;1.40;;
13891;SDS011;7016;48.172;8.058;2023-07-13T13:43:31;4.55;;;1.33;;
13891;SDS011;7016;48.172;8.058;2023-07-13T13:46:21;4.05;;;1.17;;
13891;SDS011;7016;48.172;8.058;2023-07-13T13:49:12;5.13;;;1.20;;
13891;SDS011;7016;48.172;8.058;2023-07-13T13:52:02;3.92;;;1.52;;
13891;SDS011;7016;48.172;8.058;2023-07-13T13:54:48;7.18;;;1.40;;
13891;SDS011;7016;48.172;8.058;2023-07-13T13:57:35;5.35;;;1.48;;
13891;SDS011;7016;48.172;8.058;2023-07-13T14:00:22;6.35;;;1.48;;
13891;SDS011;7016;48.172;8.058;2023-07-13T14:03:13;4.47;;;1.33;;
13891;SDS011;7016;48.172;8.058;2023-07-13T14:06:04;6.40;;;1.23;;
13891;SDS011;7016;48.172;8.058;2023-07-13T14:08:50;6.95;;;1.77;;
13891;SDS011;7016;48.172;8.058;2023-07-13T14:11:36;6.47;;;1.58;;
13891;SDS011;7016;48.172;8.058;2023-07-13T14:14:23;10.70;;;1.63;;
13891;SDS011;7016;48.172;8.058;2023-07-13T14:17:18;6.70;;;1.63;;
13891;SDS011;7016;48.172;8.058;2023-07-13T14:20:10;8.27;;;1.65;;
13891;SDS011;7016;48.172;8.058;2023-07-13T14:22:57;5.43;;;1.55;;
13891;SDS011;7016;48.172;8.058;2023-07-13T14:25:44;6.85;;;1.60;;
13891;SDS011;7016;48.172;8.058;2023-07-13T14:28:32;8.02;;;1.58;;
13891;SDS011;7016;48.172;8.058;2023-07-13T14:31:18;4.07;;;1.50;;
13891;SDS011;7016;48.172;8.058;2023-07-13T14:34:05;7.72;;;1.63;;
13891;SDS011;7016;48.172;8.058;2023-07-13T14:36:51;4.97;;;1.40;;
13891;SDS011;7016;48.172;8.058;2023-07-13T14:39:37;4.20;;;1.42;;
13891;SDS011;7016;48.172;8.058;2023-07-13T14:42:23;3.65;;;1.45;;
13891;SDS011;7016;48.172;8.058;2023-07-13T14:45:13;7.93;;;1.50;;
13891;SDS011;7016;48.172;8.058;2023-07-13T14:48:01;5.25;;;1.55;;
13891;SDS011;7016;48.172;8.058;2023-07-13T14:50:51;7.72;;;1.80;;
13891;SDS011;7016;48.172;8.058;2023-07-13T14:53:41;4.72;;;1.60;;
13891;SDS011;7016;48.172;8.058;2023-07-13T14:56:27;8.32;;;1.73;;
13891;SDS011;7016;48.172;8.058;2023-07-13T14:59:13;6.40;;;1.50;;
13891;SDS011;7016;48.172;8.058;2023-07-13T15:02:00;6.93;;;1.42;;
13891;SDS011;7016;48.172;8.058;2023-07-13T15:04:47;4.28;;;1.40;;
13891;SDS011;7016;48.172;8.058;2023-07-13T15:07:33;7.70;;;1.50;;
13891;SDS011;7016;48.172;8.058;2023-07-13T15:10:21;5.93;;;1.55;;
13891;SDS011;7016;48.172;8.058;2023-07-13T15:13:15;5.43;;;1.42;;
13891;SDS011;7016;48.172;8.058;2023-07-13T15:19:02;6.72;;;1.92;;
13891;SDS011;7016;48.172;8.058;2023-07-13T15:21:49;5.70;;;1.35;;
13891;SDS011;7016;48.172;8.058;2023-07-13T15:24:37;5.72;;;1.33;;
13891;SDS011;7016;48.172;8.058;2023-07-13T15:27:23;7.68;;;1.70;;
13891;SDS011;7016;48.172;8.058;2023-07-13T15:30:10;3.47;;;1.45;;
13891;SDS011;7016;48.172;8.058;2023-07-13T15:32:57;5.35;;;1.63;;
13891;SDS011;7016;48.172;8.058;2023-07-13T15:35:55;3.85;;;1.55;;
13891;SDS011;7016;48.172;8.058;2023-07-13T15:38:44;5.18;;;1.50;;
13891;SDS011;7016;48.172;8.058;2023-07-13T15:41:32;4.82;;;1.40;;
13891;SDS011;7016;48.172;8.058;2023-07-13T15:44:24;3.90;;;1.48;;
13891;SDS011;7016;48.172;8.058;2023-07-13T15:47:15;3.30;;;1.45;;
13891;SDS011;7016;48.172;8.058;2023-07-13T15:50:01;3.92;;;1.23;;
13891;SDS011;7016;48.172;8.058;2023-07-13T15:52:49;2.63;;;1.30;;
13891;SDS011;7016;48.172;8.058;2023-07-13T15:55:40;6.43;;;1.80;;
13891;SDS011;7016;48.172;8.058;2023-07-13T15:58:27;4.45;;;1.58;;
13891;SDS011;7016;48.172;8.058;2023-07-13T16:01:14;4.00;;;1.48;;
13891;SDS011;7016;48.172;8.058;2023-07-13T16:04:01;5.75;;;1.67;;
13891;SDS011;7016;48.172;8.058;2023-07-13T16:06:47;5.82;;;1.58;;
13891;SDS011;7016;48.172;8.058;2023-07-13T16:09:34;4.72;;;1.83;;
13891;SDS011;7016;48.172;8.058;2023-07-13T16:12:20;7.88;;;1.85;;
13891;SDS011;7016;48.172;8.058;2023-07-13T16:15:15;3.40;;;1.38;;
13891;SDS011;7016;48.172;8.058;2023-07-13T16:18:04;5.03;;;1.50;;
13891;SDS011;7016;48.172;8.058;2023-07-13T16:20:50;5.70;;;1.50;;
13891;SDS011;7016;48.172;8.058;2023-07-13T16:23:39;3.97;;;1.27;;
13891;SDS011;7016;48.172;8.058;2023-07-13T16:26:30;3.63;;;1.40;;
13891;SDS011;7016;48.172;8.058;2023-07-13T16:29:30;6.47;;;1.30;;
13891;SDS011;7016;48.172;8.058;2023-07-13T16:32:17;5.53;;;1.83;;
13891;SDS011;7016;48.172;8.058;2023-07-13T16:35:03;3.33;;;1.20;;
13891;SDS011;7016;48.172;8.058;2023-07-13T16:37:51;3.65;;;1.48;;
13891;SDS011;7016;48.172;8.058;2023-07-13T16:40:37;3.13;;;1.52;;
13891;SDS011;7016;48.172;8.058;2023-07-13T16:43:24;3.40;;;1.38;;
13891;SDS011;7016;48.172;8.058;2023-07-13T16:46:10;5.30;;;1.50;;
13891;SDS011;7016;48.172;8.058;2023-07-13T16:49:01;4.53;;;1.65;;
13891;SDS011;7016;48.172;8.058;2023-07-13T16:51:50;2.90;;;1.58;;
13891;SDS011;7016;48.172;8.058;2023-07-13T16:54:39;6.72;;;1.58;;
13891;SDS011;7016;48.172;8.058;2023-07-13T16:57:27;3.10;;;1.73;;
13891;SDS011;7016;48.172;8.058;2023-07-13T17:00:20;9.95;;;1.67;;
13891;SDS011;7016;48.172;8.058;2023-07-13T17:03:14;7.78;;;1.50;;
13891;SDS011;7016;48.172;8.058;2023-07-13T17:06:02;12.40;;;1.65;;
13891;SDS011;7016;48.172;8.058;2023-07-13T17:09:10;4.28;;;1.42;;
13891;SDS011;7016;48.172;8.058;2023-07-13T17:11:58;7.72;;;1.50;;
13891;SDS011;7016;48.172;8.058;2023-07-13T17:14:45;5.60;;;1.50;;
13891;SDS011;7016;48.172;8.058;2023-07-13T17:17:33;7.68;;;1.40;;
13891;SDS011;7016;48.172;8.058;2023-07-13T17:20:29;4.13;;;1.50;;
13891;SDS011;7016;48.172;8.058;2023-07-13T17:23:23;7.00;;;1.40;;
13891;SDS011;7016;48.172;8.058;2023-07-13T17:26:11;7.70;;;1.52;;
13891;SDS011;7016;48.172;8.058;2023-07-13T17:28:57;6.05;;;1.77;;
13891;SDS011;7016;48.172;8.058;2023-07-13T17:31:43;5.90;;;1.52;;
13891;SDS011;7016;48.172;8.058;2023-07-13T17:34:33;6.00;;;2.08;;
13891;SDS011;7016;48.172;8.058;2023-07-13T17:37:19;5.88;;;1.73;;
13891;SDS011;7016;48.172;8.058;2023-07-13T17:40:12;4.47;;;1.50;;
13891;SDS011;7016;48.172;8.058;2023-07-13T17:43:03;4.40;;;1.40;;
13891;SDS011;7016;48.172;8.058;2023-07-13T17:45:51;5.28;;;1.40;;
13891;SDS011;7016;48.172;8.058;2023-07-13T17:48:40;6.75;;;1.60;;
13891;SDS011;7016;48.172;8.058;2023-07-13T17:51:28;4.55;;;1.42;;
13891;SDS011;7016;48.172;8.058;2023-07-13T17:54:14;5.13;;;1.33;;
13891;SDS011;7016;48.172;8.058;2023-07-13T17:57:05;5.45;;;1.60;;